Time;durP1;ratioP1;P1;durP2;ratioP2;P2;SDS_P1;SDS_P2;PMS_P1;PMS_P2;Temp;Humidity;BMP_temperature;BMP_pressure;BME280_temperature;BME280_humidity;BME280_pressure;Samples;Min_cycle;Max_cycle;Signal;HPM_P1;HPM_P2
2022/01/12 00:00:57;;;;;;;9.03;1.50;;;27.20;99.90;;;;;;4976417;28;20656;-76
2022/01/12 00:03:26;;;;;;;3.57;1.00;;;27.30;99.90;;;;;;4994252;28;20179;-74
2022/01/12 00:05:53;;;;;;;5.27;1.10;;;27.30;99.90;;;;;;4994424;28;20658;-79
2022/01/12 00:08:21;;;;;;;8.17;1.60;;;27.50;99.90;;;;;;4993696;28;20265;-78
2022/01/12 00:10:48;;;;;;;7.27;1.43;;;27.50;99.90;;;;;;4994119;28;20186;-79
2022/01/12 00:13:15;;;;;;;6.23;1.30;;;27.60;99.90;;;;;;4994087;28;20177;-77
2022/01/12 00:15:43;;;;;;;7.33;1.17;;;27.70;99.90;;;;;;4993899;28;20181;-79
2022/01/12 00:18:11;;;;;;;5.10;1.27;;;27.50;99.90;;;;;;4993992;28;20666;-73
2022/01/12 00:20:38;;;;;;;6.70;1.10;;;27.60;99.90;;;;;;4992932;28;20210;-79
2022/01/12 00:23:05;;;;;;;4.10;1.23;;;27.90;99.90;;;;;;4993818;28;20191;-78
2022/01/12 00:25:45;;;;;;;6.00;1.23;;;27.90;99.90;;;;;;4993564;28;20179;-79
2022/01/12 00:33:43;;;;;;;4.40;1.37;;;27.80;99.90;;;;;;4993200;28;20189;-78
2022/01/12 00:36:10;;;;;;;3.27;1.07;;;27.70;99.90;;;;;;4993547;28;20207;-78
2022/01/12 00:38:37;;;;;;;5.37;1.50;;;27.80;99.90;;;;;;4993613;28;20205;-80
2022/01/12 00:41:04;;;;;;;11.73;1.93;;;27.60;99.90;;;;;;4993513;28;20571;-79
2022/01/12 00:43:34;;;;;;;7.10;1.60;;;27.10;99.90;;;;;;4993426;28;20193;-75
2022/01/12 00:46:01;;;;;;;5.23;1.33;;;27.10;99.90;;;;;;4993385;28;20185;-77
2022/01/12 00:48:28;;;;;;;5.10;1.60;;;26.90;99.90;;;;;;4993148;28;20190;-78
2022/01/12 00:50:58;;;;;;;6.73;1.30;;;27.10;99.90;;;;;;4993511;28;20589;-78
2022/01/12 00:53:26;;;;;;;5.57;1.40;;;27.20;99.90;;;;;;4993212;28;20186;-78
2022/01/12 00:55:53;;;;;;;7.60;1.30;;;27.10;99.90;;;;;;4993069;28;20182;-79
2022/01/12 00:58:20;;;;;;;5.00;1.50;;;27.00;99.90;;;;;;4975842;28;20198;-79
2022/01/12 01:00:48;;;;;;;9.97;1.60;;;27.10;99.90;;;;;;4992667;28;20636;-77
2022/01/12 01:03:16;;;;;;;11.87;1.73;;;27.00;99.90;;;;;;4994189;28;20695;-77
2022/01/12 01:05:44;;;;;;;4.00;1.40;;;26.70;99.90;;;;;;4977660;28;20273;-78
2022/01/12 01:08:11;;;;;;;7.97;1.60;;;26.50;99.90;;;;;;4993870;28;20257;-78
2022/01/12 01:13:18;;;;;;;6.43;1.43;;;26.40;99.90;;;;;;4993146;28;20190;-76
2022/01/12 01:26:35;;;;;;;8.17;2.23;;;26.30;99.90;;;;;;4993136;28;20228;-78
2022/01/12 01:29:04;;;;;;;5.83;1.70;;;26.30;99.90;;;;;;4975123;28;20608;-78
2022/01/12 01:31:33;;;;;;;3.83;1.23;;;26.10;99.90;;;;;;4992505;28;20194;-79
2022/01/12 01:34:11;;;;;;;6.17;1.50;;;26.30;99.90;;;;;;4992529;28;20280;-74
2022/01/12 01:36:50;;;;;;;6.23;1.60;;;26.40;99.90;;;;;;4992975;28;20206;-79
2022/01/12 01:39:20;;;;;;;4.40;1.17;;;26.40;99.90;;;;;;4993202;28;20174;-78
2022/01/12 01:42:03;;;;;;;5.40;1.50;;;26.20;99.90;;;;;;4992974;28;20531;-76
2022/01/12 01:55:27;;;;;;;3.87;1.03;;;27.30;99.90;;;;;;4992669;28;20245;-74
2022/01/12 01:57:55;;;;;;;7.60;1.33;;;27.60;99.90;;;;;;4992218;28;20221;-80
2022/01/12 02:00:26;;;;;;;5.13;1.70;;;27.70;99.90;;;;;;4992481;28;20175;-79
2022/01/12 02:02:56;;;;;;;6.20;1.43;;;27.60;99.90;;;;;;4993091;28;20649;-79
2022/01/12 02:05:24;;;;;;;3.00;1.20;;;28.00;99.90;;;;;;4975360;28;20182;-78
2022/01/12 02:07:52;;;;;;;4.60;1.33;;;28.30;99.90;;;;;;4992380;28;20222;-74
2022/01/12 02:10:19;;;;;;;2.77;0.90;;;28.70;99.90;;;;;;4992356;28;20182;-79
2022/01/12 02:12:47;;;;;;;3.87;0.80;;;29.20;99.90;;;;;;4991842;28;20186;-78
2022/01/12 02:15:22;;;;;;;5.63;1.30;;;29.20;99.90;;;;;;4992170;28;20655;-79
2022/01/12 02:35:12;;;;;;;4.13;1.40;;;29.30;99.90;;;;;;4979730;28;20182;-74
2022/01/12 02:39:45;;;;;;;3.50;1.03;;;29.20;99.90;;;;;;4991988;28;20301;-78
2022/01/12 02:40:08;;;;;;;6.13;1.40;;;29.00;99.90;;;;;;4991334;28;20171;-78
2022/01/12 02:42:39;;;;;;;6.77;0.90;;;28.70;99.90;;;;;;4991851;28;20171;-77
2022/01/12 02:56:00;;;;;;;7.37;1.30;;;28.00;99.90;;;;;;4993797;28;20233;-78
2022/01/12 02:58:28;;;;;;;3.10;1.07;;;27.80;99.90;;;;;;4995378;28;20187;-77
2022/01/12 03:03:45;;;;;;;6.10;1.47;;;27.30;99.90;;;;;;4995413;28;20210;-77
2022/01/12 03:06:17;;;;;;;6.30;1.47;;;27.10;99.90;;;;;;4995506;28;20202;-79
2022/01/12 03:08:45;;;;;;;2.83;1.10;;;26.30;99.90;;;;;;4994661;28;20570;-80
2022/01/12 03:11:16;;;;;;;5.13;1.43;;;25.60;99.90;;;;;;4995301;28;20186;-78
2022/01/12 03:13:44;;;;;;;4.20;1.13;;;25.50;99.90;;;;;;4977615;28;20187;-78
2022/01/12 03:16:16;;;;;;;2.27;1.17;;;25.50;99.90;;;;;;4995047;28;20214;-79
2022/01/12 03:18:45;;;;;;;0.63;0.63;;;25.70;99.90;;;;;;4994585;28;20178;-71
2022/01/12 03:21:14;;;;;;;1.23;0.80;;;25.40;99.90;;;;;;4995004;28;20691;-75
2022/01/12 03:23:42;;;;;;;3.17;1.00;;;25.40;99.90;;;;;;4994991;28;20174;-76
2022/01/12 03:26:10;;;;;;;1.50;0.80;;;25.50;99.90;;;;;;4977624;28;20178;-79
2022/01/12 03:28:39;;;;;;;3.60;0.70;;;25.50;99.90;;;;;;4994794;28;20183;-76
2022/01/12 03:31:21;;;;;;;1.27;1.00;;;25.50;99.90;;;;;;4994974;28;20206;-77
2022/01/12 03:33:54;;;;;;;2.20;1.13;;;25.60;99.90;;;;;;4994916;28;20202;-77
2022/01/12 03:39:11;;;;;;;1.60;1.50;;;25.30;99.90;;;;;;5001863;28;20216;-77
2022/01/12 03:41:40;;;;;;;2.40;2.20;;;25.30;99.90;;;;;;5014313;28;20184;-76
2022/01/12 03:44:10;;;;;;;3.77;2.80;;;25.00;99.90;;;;;;5004321;28;20182;-76
2022/01/12 03:46:47;;;;;;;3.50;3.20;;;25.00;99.90;;;;;;4994450;28;20189;-75
2022/01/12 03:49:16;;;;;;;4.47;3.53;;;25.10;99.90;;;;;;4993879;28;20182;-75
2022/01/12 03:51:44;;;;;;;4.53;3.40;;;25.00;99.90;;;;;;4994582;28;20659;-77
2022/01/12 03:54:12;;;;;;;6.33;3.60;;;24.80;99.90;;;;;;4994653;28;20199;-77
2022/01/12 03:56:40;;;;;;;3.40;2.97;;;24.90;99.90;;;;;;5001897;28;20209;-77
2022/01/12 03:59:08;;;;;;;3.63;3.30;;;24.80;99.90;;;;;;5004130;28;20175;-78
2022/01/12 04:01:35;;;;;;;3.57;2.77;;;24.90;99.90;;;;;;5000215;28;20229;-77
2022/01/12 04:04:08;;;;;;;2.40;2.20;;;24.80;99.90;;;;;;4994695;28;20229;-78
2022/01/12 04:09:22;;;;;;;0.90;0.90;;;24.90;99.90;;;;;;4994101;28;20666;-77
2022/01/12 04:11:49;;;;;;;1.43;0.80;;;24.60;99.90;;;;;;4976737;28;20602;-78
2022/01/12 04:14:16;;;;;;;0.43;0.43;;;24.70;99.90;;;;;;4994056;28;20229;-79
2022/01/12 04:16:45;;;;;;;1.40;0.30;;;25.00;99.90;;;;;;4994014;28;20214;-77
2022/01/12 04:19:13;;;;;;;1.23;0.30;;;24.80;99.90;;;;;;4976388;28;20194;-73
2022/01/12 04:21:47;;;;;;;0.20;0.20;;;24.90;99.90;;;;;;4976473;28;20183;-79
2022/01/12 04:24:15;;;;;;;0.20;0.20;;;25.00;99.90;;;;;;4993434;28;20192;-77
2022/01/12 04:26:42;;;;;;;0.30;0.30;;;25.20;99.90;;;;;;4993705;28;20197;-79
2022/01/12 04:29:10;;;;;;;1.40;0.23;;;25.20;99.90;;;;;;4993270;28;20249;-77
2022/01/12 04:31:38;;;;;;;1.33;0.20;;;25.20;99.90;;;;;;4993408;28;20272;-78
2022/01/12 04:34:08;;;;;;;1.90;0.30;;;25.10;99.90;;;;;;4992356;28;20547;-73
2022/01/12 04:36:36;;;;;;;0.23;0.20;;;25.20;99.90;;;;;;4976029;28;20226;-79
2022/01/12 04:39:04;;;;;;;1.53;0.30;;;25.50;99.90;;;;;;4993313;28;20659;-77
2022/01/12 04:41:32;;;;;;;1.17;0.23;;;25.70;99.90;;;;;;4975613;28;20194;-79
2022/01/12 04:44:02;;;;;;;0.50;0.20;;;25.50;99.90;;;;;;4975138;28;20183;-80
2022/01/12 04:51:47;;;;;;;0.50;0.40;;;25.50;99.90;;;;;;4993531;28;20171;-79
2022/01/12 04:54:15;;;;;;;0.30;0.30;;;25.30;99.90;;;;;;4992147;28;20589;-76
2022/01/12 04:56:43;;;;;;;1.03;0.43;;;25.50;99.90;;;;;;4992233;28;20210;-78
2022/01/12 04:59:11;;;;;;;0.40;0.40;;;25.70;99.90;;;;;;4975539;28;20213;-78
2022/01/12 05:01:49;;;;;;;0.77;0.40;;;25.80;99.90;;;;;;4992303;28;20269;-79
2022/01/12 05:10:02;;;;;;;0.70;0.57;;;24.80;99.90;;;;;;4993363;28;20213;-79
2022/01/12 05:15:33;;;;;;;0.70;0.60;;;24.90;99.90;;;;;;4940755;28;20687;-80
2022/01/12 05:18:01;;;;;;;0.80;0.70;;;24.60;99.90;;;;;;4984379;28;20227;-74
2022/01/12 05:20:28;;;;;;;1.30;0.60;;;24.60;99.90;;;;;;4987497;28;20716;-78
2022/01/12 05:22:56;;;;;;;1.67;0.60;;;24.80;99.90;;;;;;4978613;28;20283;-76
2022/01/12 05:25:24;;;;;;;2.73;0.93;;;24.90;99.90;;;;;;4974594;28;20386;-72
2022/01/12 05:27:53;;;;;;;2.03;0.80;;;24.80;99.90;;;;;;4985287;28;20189;-78
2022/01/12 05:30:21;;;;;;;1.40;0.87;;;24.70;99.90;;;;;;4994668;28;20718;-76
2022/01/12 05:32:48;;;;;;;0.80;0.70;;;24.90;99.90;;;;;;4994800;28;20187;-76
2022/01/12 05:35:18;;;;;;;1.63;1.17;;;24.80;99.90;;;;;;4992464;28;20197;-77
2022/01/12 05:37:46;;;;;;;1.23;0.77;;;24.90;99.90;;;;;;4992436;28;20252;-76
2022/01/12 05:40:16;;;;;;;3.73;1.10;;;25.00;99.90;;;;;;4992401;28;20175;-77
2022/01/12 05:42:44;;;;;;;3.77;2.07;;;24.70;99.90;;;;;;4992284;28;20193;-77
2022/01/12 05:45:12;;;;;;;3.90;2.20;;;24.10;99.90;;;;;;4992628;28;20179;-76
2022/01/12 05:50:13;;;;;;;4.57;2.70;;;23.70;99.90;;;;;;4981855;28;20657;-77
2022/01/12 05:52:41;;;;;;;3.53;1.57;;;23.30;99.90;;;;;;4992487;28;20220;-78
2022/01/12 05:55:09;;;;;;;4.07;1.30;;;23.10;99.90;;;;;;4992412;28;20228;-78
2022/01/12 05:57:38;;;;;;;3.93;1.10;;;22.90;99.90;;;;;;4993151;28;20310;-80
2022/01/12 06:00:11;;;;;;;4.43;1.37;;;22.40;99.90;;;;;;4994821;28;20189;-78
2022/01/12 06:02:39;;;;;;;3.43;1.50;;;22.20;99.90;;;;;;4992887;28;20240;-79
2022/01/12 06:05:07;;;;;;;2.37;1.00;;;22.00;99.90;;;;;;4975374;28;20239;-78
2022/01/12 06:07:35;;;;;;;4.20;1.83;;;21.90;99.90;;;;;;4992012;28;20225;-80
2022/01/12 06:10:03;;;;;;;6.37;2.00;;;21.90;99.90;;;;;;4992431;28;20280;-79
2022/01/12 06:12:30;;;;;;;5.77;1.83;;;21.80;99.90;;;;;;4992693;28;20191;-79
2022/01/12 06:14:58;;;;;;;7.03;1.77;;;21.60;99.90;;;;;;4993068;28;20189;-77
2022/01/12 06:17:25;;;;;;;7.90;2.07;;;21.60;99.90;;;;;;4992467;28;20219;-77
2022/01/12 06:19:52;;;;;;;8.43;2.10;;;21.50;99.90;;;;;;4992526;28;20204;-74
2022/01/12 06:22:20;;;;;;;4.37;1.80;;;21.60;99.90;;;;;;4992462;28;20576;-80
2022/01/12 06:24:47;;;;;;;6.80;1.73;;;21.40;99.90;;;;;;4992156;28;20183;-73
2022/01/12 06:27:16;;;;;;;6.00;1.60;;;21.30;99.90;;;;;;4992941;28;20181;-79
2022/01/12 06:30:03;;;;;;;6.63;1.87;;;21.20;99.90;;;;;;4992430;28;20650;-72
2022/01/12 06:32:31;;;;;;;4.73;1.40;;;21.20;99.90;;;;;;4996621;28;20226;-79
2022/01/12 06:34:59;;;;;;;5.27;1.50;;;21.40;99.90;;;;;;4996335;28;20226;-80
2022/01/12 06:37:26;;;;;;;6.20;1.53;;;21.50;99.90;;;;;;4996578;28;20671;-77
2022/01/12 06:39:53;;;;;;;3.83;1.20;;;21.60;99.90;;;;;;4996531;28;20187;-80
2022/01/12 06:42:21;;;;;;;3.77;1.50;;;21.90;99.90;;;;;;4978586;28;20652;-79
2022/01/12 06:44:48;;;;;;;6.03;1.43;;;22.10;99.90;;;;;;4995832;28;20174;-78
2022/01/12 06:47:18;;;;;;;7.63;1.47;;;22.20;99.90;;;;;;4996105;28;20186;-81
2022/01/12 06:49:45;;;;;;;4.47;1.50;;;22.40;99.90;;;;;;4995348;28;20178;-78
2022/01/12 06:52:12;;;;;;;3.03;1.23;;;22.60;99.90;;;;;;4978679;28;20182;-78
2022/01/12 06:54:40;;;;;;;4.63;1.23;;;22.70;99.90;;;;;;4995576;28;20185;-74
2022/01/12 07:02:33;;;;;;;4.90;1.37;;;22.60;99.90;;;;;;4993370;28;20299;-73
2022/01/12 07:05:01;;;;;;;6.20;1.00;;;22.50;99.90;;;;;;4995280;28;20208;-72
2022/01/12 07:07:28;;;;;;;3.37;1.53;;;22.60;99.90;;;;;;4995123;28;20175;-72
2022/01/12 07:09:55;;;;;;;3.87;1.10;;;22.70;99.90;;;;;;4994996;28;20214;-72
2022/01/12 07:12:22;;;;;;;3.70;1.40;;;22.80;99.90;;;;;;4994878;28;20173;-70
2022/01/12 07:14:50;;;;;;;2.47;0.97;;;22.80;99.90;;;;;;4994814;28;20224;-73
2022/01/12 07:17:17;;;;;;;1.60;0.70;;;22.90;99.90;;;;;;4994740;28;20628;-74
2022/01/12 07:19:45;;;;;;;1.33;0.70;;;23.00;99.90;;;;;;4994776;28;20174;-72
2022/01/12 07:22:12;;;;;;;6.10;0.80;;;23.40;99.90;;;;;;4994672;28;20522;-72
2022/01/12 07:24:39;;;;;;;2.43;0.70;;;23.50;99.90;;;;;;4994672;28;20268;-73
2022/01/12 07:27:07;;;;;;;2.93;0.60;;;23.60;99.90;;;;;;4994874;28;20216;-72
2022/01/12 07:29:35;;;;;;;3.30;0.93;;;23.90;99.90;;;;;;4994765;28;20178;-72
2022/01/12 07:32:02;;;;;;;4.67;0.70;;;23.80;99.90;;;;;;4994604;28;20280;-72
2022/01/12 07:34:29;;;;;;;3.70;0.73;;;23.70;99.90;;;;;;4992595;28;20181;-74
2022/01/12 07:36:57;;;;;;;1.27;0.60;;;23.60;99.90;;;;;;4975092;28;20239;-74
2022/01/12 07:39:24;;;;;;;3.57;0.67;;;23.50;99.90;;;;;;4994532;28;20190;-73
2022/01/12 07:41:51;;;;;;;6.13;1.10;;;23.30;99.90;;;;;;4991317;28;20182;-78
2022/01/12 07:44:21;;;;;;;3.70;1.03;;;23.20;99.90;;;;;;4993605;28;20175;-76
2022/01/12 07:46:48;;;;;;;4.00;1.10;;;23.10;99.90;;;;;;4993606;28;20666;-75
2022/01/12 07:49:16;;;;;;;7.63;1.30;;;22.90;99.90;;;;;;4994213;28;20709;-78
2022/01/12 07:51:43;;;;;;;6.10;0.80;;;22.70;99.90;;;;;;4994009;28;20190;-74
2022/01/12 07:54:10;;;;;;;4.37;0.97;;;22.60;99.90;;;;;;4994664;28;20185;-76
2022/01/12 07:56:38;;;;;;;2.07;1.03;;;22.40;99.90;;;;;;4991683;28;20236;-76
2022/01/12 07:59:05;;;;;;;2.30;0.90;;;22.40;99.90;;;;;;4994733;28;20220;-77
2022/01/12 08:01:33;;;;;;;2.30;1.00;;;22.40;99.90;;;;;;4994506;28;20230;-78
2022/01/12 08:04:00;;;;;;;3.17;0.83;;;22.40;99.90;;;;;;4994870;28;20182;-77
2022/01/12 08:06:27;;;;;;;1.87;1.00;;;22.20;99.90;;;;;;4994270;28;20186;-75
2022/01/12 08:08:56;;;;;;;2.63;0.93;;;22.10;99.90;;;;;;4994476;28;20197;-77
2022/01/12 08:11:24;;;;;;;2.07;0.90;;;22.00;99.90;;;;;;4990939;28;20194;-73
2022/01/12 08:13:52;;;;;;;1.37;1.03;;;22.00;99.90;;;;;;4993708;28;20605;-73
2022/01/12 08:16:20;;;;;;;1.97;0.97;;;22.00;99.90;;;;;;5007047;28;20614;-75
2022/01/12 08:18:47;;;;;;;4.73;1.00;;;21.90;99.90;;;;;;5014168;28;20207;-75
2022/01/12 08:21:14;;;;;;;2.47;1.10;;;21.90;99.90;;;;;;4995879;28;20170;-77
2022/01/12 08:23:42;;;;;;;2.87;1.00;;;21.90;99.90;;;;;;4994005;28;20177;-76
2022/01/12 08:26:09;;;;;;;3.90;1.30;;;21.90;99.90;;;;;;4993949;28;20166;-76
2022/01/12 08:28:36;;;;;;;5.97;1.10;;;21.80;99.90;;;;;;4994074;28;20545;-74
2022/01/12 08:31:04;;;;;;;2.33;1.00;;;21.80;99.90;;;;;;4994289;28;20190;-77
2022/01/12 08:33:32;;;;;;;1.87;1.13;;;21.70;99.90;;;;;;5017125;28;20189;-77
2022/01/12 08:36:00;;;;;;;5.80;1.23;;;21.50;99.90;;;;;;4993579;28;20192;-76
2022/01/12 08:38:27;;;;;;;2.73;0.97;;;21.40;99.90;;;;;;4997792;28;20184;-75
2022/01/12 08:40:54;;;;;;;3.30;0.83;;;21.50;99.90;;;;;;4995697;28;20651;-77
2022/01/12 08:43:22;;;;;;;2.43;0.80;;;21.30;99.90;;;;;;4995263;28;20564;-75
2022/01/12 08:45:52;;;;;;;2.63;1.00;;;21.30;99.90;;;;;;4997838;28;20194;-74
2022/01/12 08:48:20;;;;;;;2.47;0.60;;;21.20;99.90;;;;;;4996557;28;20589;-72
2022/01/12 08:50:48;;;;;;;1.70;0.80;;;21.20;99.90;;;;;;4995708;28;20191;-71
2022/01/12 08:53:16;;;;;;;2.40;0.93;;;21.10;99.90;;;;;;4973666;28;20190;-73
2022/01/12 08:55:43;;;;;;;0.87;0.57;;;21.20;99.90;;;;;;4984325;28;20202;-73
2022/01/12 08:58:10;;;;;;;2.80;0.70;;;21.20;99.90;;;;;;4993713;28;20218;-74
2022/01/12 09:00:38;;;;;;;3.70;0.87;;;21.00;99.90;;;;;;4993579;28;20178;-76
2022/01/12 09:03:06;;;;;;;1.90;0.60;;;21.00;99.90;;;;;;4976162;28;20245;-75
2022/01/12 09:05:33;;;;;;;2.87;0.80;;;21.10;99.90;;;;;;4992877;28;20186;-77
2022/01/12 09:08:01;;;;;;;1.13;0.70;;;21.10;99.90;;;;;;4993358;28;20183;-75
2022/01/12 09:10:28;;;;;;;2.93;0.90;;;21.10;99.90;;;;;;4993243;28;20190;-76
2022/01/12 09:12:55;;;;;;;2.33;0.87;;;21.10;99.90;;;;;;4993496;28;20186;-75
2022/01/12 09:15:25;;;;;;;2.43;1.10;;;21.10;99.90;;;;;;4993285;28;20190;-74
2022/01/12 09:17:54;;;;;;;5.73;1.30;;;21.00;99.90;;;;;;4993226;28;20585;-77
2022/01/12 09:20:22;;;;;;;3.53;1.10;;;21.00;99.90;;;;;;4993437;28;20619;-75
2022/01/12 09:22:50;;;;;;;3.00;1.17;;;21.00;99.90;;;;;;4993009;28;20706;-76
2022/01/12 09:25:18;;;;;;;4.93;1.10;;;21.00;99.90;;;;;;4993544;28;20181;-75
2022/01/12 09:27:45;;;;;;;3.43;1.07;;;21.00;99.90;;;;;;4993973;28;20249;-76
2022/01/12 09:30:22;;;;;;;3.77;1.20;;;21.00;99.90;;;;;;4993400;28;20718;-75
2022/01/12 09:32:50;;;;;;;2.43;1.27;;;21.00;99.90;;;;;;4993349;28;20238;-77
2022/01/12 09:35:17;;;;;;;4.20;1.20;;;21.10;99.90;;;;;;4992791;28;20792;-74
2022/01/12 09:37:55;;;;;;;4.87;1.00;;;21.00;99.90;;;;;;4992979;28;20210;-72
2022/01/12 09:40:23;;;;;;;8.97;1.30;;;21.00;99.90;;;;;;4992888;28;20266;-75
2022/01/12 09:42:50;;;;;;;4.30;0.93;;;20.90;99.90;;;;;;4992671;28;20229;-75
2022/01/12 09:45:19;;;;;;;4.17;1.53;;;20.90;99.90;;;;;;4993116;28;20560;-73
2022/01/12 09:47:49;;;;;;;4.50;1.33;;;21.00;99.90;;;;;;4993012;28;20202;-73
2022/01/12 09:50:20;;;;;;;2.27;1.20;;;20.90;99.90;;;;;;4993070;28;20209;-74
2022/01/12 09:52:48;;;;;;;3.07;1.43;;;20.90;99.90;;;;;;4992737;28;20182;-73
2022/01/12 09:55:15;;;;;;;3.20;1.87;;;21.00;99.90;;;;;;4992893;28;20182;-72
2022/01/12 09:57:43;;;;;;;3.60;1.53;;;20.90;99.90;;;;;;4992861;28;20218;-74
2022/01/12 10:00:11;;;;;;;3.30;1.50;;;21.00;99.90;;;;;;4992996;28;20578;-74
2022/01/12 10:02:41;;;;;;;3.37;1.30;;;21.00;99.90;;;;;;4992944;28;20255;-71
2022/01/12 10:05:10;;;;;;;3.67;1.57;;;20.90;99.90;;;;;;4992321;28;20274;-74
2022/01/12 10:07:39;;;;;;;2.37;1.20;;;20.90;99.90;;;;;;4992897;28;20201;-74
2022/01/12 10:10:10;;;;;;;2.50;1.40;;;20.80;99.90;;;;;;4993054;28;20699;-73
2022/01/12 10:12:37;;;;;;;5.20;1.60;;;20.90;99.90;;;;;;4993273;28;20171;-74
2022/01/12 10:15:10;;;;;;;1.77;1.00;;;20.90;99.90;;;;;;4992931;28;20180;-75
2022/01/12 10:17:40;;;;;;;4.53;1.20;;;20.80;99.90;;;;;;4975231;28;20629;-76
2022/01/12 10:20:10;;;;;;;3.87;1.30;;;20.80;99.90;;;;;;4992560;28;20263;-76
2022/01/12 10:22:39;;;;;;;4.10;1.80;;;20.70;99.90;;;;;;4974445;28;20627;-73
2022/01/12 10:25:21;;;;;;;4.90;1.70;;;20.70;99.90;;;;;;4992578;28;20170;-75
2022/01/12 10:27:49;;;;;;;5.93;1.30;;;20.80;99.90;;;;;;4992836;28;20265;-74
2022/01/12 10:30:24;;;;;;;4.63;1.40;;;20.80;99.90;;;;;;4992698;28;20265;-75
2022/01/12 10:33:05;;;;;;;7.67;1.30;;;20.90;99.90;;;;;;4992089;28;20209;-75
2022/01/12 10:35:36;;;;;;;2.03;1.30;;;21.00;99.90;;;;;;4992488;28;20183;-72
2022/01/12 10:38:13;;;;;;;4.27;1.50;;;20.90;99.90;;;;;;4992592;28;20218;-74
2022/01/12 10:41:06;;;;;;;2.53;1.37;;;21.00;99.90;;;;;;4992568;28;20640;-74
2022/01/12 10:43:38;;;;;;;3.27;1.70;;;20.90;99.90;;;;;;4989497;28;20198;-76
2022/01/12 10:46:17;;;;;;;4.47;1.50;;;20.90;99.90;;;;;;4993006;28;20253;-74
2022/01/12 10:48:50;;;;;;;5.97;1.80;;;21.00;99.90;;;;;;4993035;28;20171;-73
2022/01/12 10:51:21;;;;;;;5.60;1.70;;;21.10;99.90;;;;;;4992787;28;20174;-72
2022/01/12 10:53:50;;;;;;;3.63;1.53;;;21.10;99.90;;;;;;4975297;28;20701;-75
2022/01/12 10:56:20;;;;;;;5.53;1.90;;;21.00;99.90;;;;;;4992827;28;20179;-74
2022/01/12 10:58:49;;;;;;;5.17;1.90;;;20.90;99.90;;;;;;4975232;28;20193;-74
2022/01/12 11:01:20;;;;;;;6.20;1.90;;;20.90;99.90;;;;;;4992455;28;20230;-73
2022/01/12 11:03:50;;;;;;;6.97;2.20;;;20.90;99.90;;;;;;4996819;28;20202;-74
2022/01/12 11:06:18;;;;;;;6.87;2.10;;;21.00;99.90;;;;;;4994315;28;20559;-74
2022/01/12 11:08:48;;;;;;;5.33;2.00;;;21.00;99.90;;;;;;4991987;28;20221;-74
2022/01/12 11:11:21;;;;;;;4.33;2.03;;;21.00;99.90;;;;;;4992673;28;20229;-74
2022/01/12 11:13:51;;;;;;;6.80;1.80;;;21.00;99.90;;;;;;4993475;28;20546;-77
2022/01/12 11:16:23;;;;;;;7.80;2.33;;;20.90;99.90;;;;;;4993888;28;20178;-73
2022/01/12 11:18:52;;;;;;;5.30;1.80;;;21.00;99.90;;;;;;4996570;28;20227;-73
2022/01/12 11:21:33;;;;;;;10.20;2.33;;;20.90;99.90;;;;;;4996470;28;20184;-76
2022/01/12 11:24:02;;;;;;;7.80;1.70;;;20.90;99.90;;;;;;4996720;28;20180;-73
2022/01/12 11:26:31;;;;;;;5.83;1.50;;;20.90;99.90;;;;;;4996665;28;20182;-74
2022/01/12 11:28:58;;;;;;;8.37;2.43;;;20.90;99.90;;;;;;4996331;28;20213;-75
2022/01/12 11:31:32;;;;;;;15.50;2.43;;;20.80;99.90;;;;;;4996763;28;20577;-76
2022/01/12 11:34:00;;;;;;;6.13;1.90;;;20.80;99.90;;;;;;4996347;28;20803;-75
2022/01/12 11:36:40;;;;;;;7.47;1.83;;;20.80;99.90;;;;;;4996499;28;20226;-75
2022/01/12 11:39:15;;;;;;;6.23;2.37;;;20.70;99.90;;;;;;4978576;28;20218;-73
2022/01/12 11:41:48;;;;;;;5.10;1.70;;;20.80;99.90;;;;;;4996567;28;20221;-75
2022/01/12 11:44:22;;;;;;;4.83;1.90;;;20.80;99.90;;;;;;4978414;28;20183;-76
2022/01/12 11:46:56;;;;;;;7.43;1.80;;;20.70;99.90;;;;;;4996668;28;20531;-74
2022/01/12 11:49:42;;;;;;;5.47;1.63;;;20.70;99.90;;;;;;4996032;28;20557;-75
2022/01/12 11:52:26;;;;;;;4.03;2.03;;;20.70;99.90;;;;;;4995831;28;20555;-76
2022/01/12 11:55:09;;;;;;;5.33;2.37;;;20.70;99.90;;;;;;4996230;28;20182;-75
2022/01/12 11:57:41;;;;;;;6.63;2.10;;;20.70;99.90;;;;;;4996353;28;20242;-74
2022/01/12 12:00:18;;;;;;;6.23;1.80;;;20.70;99.90;;;;;;4995782;28;20203;-77
2022/01/12 12:02:49;;;;;;;5.03;1.77;;;20.60;99.90;;;;;;4995686;28;20231;-77
2022/01/12 12:05:19;;;;;;;3.63;1.73;;;20.50;99.90;;;;;;4995975;28;20178;-75
2022/01/12 12:07:55;;;;;;;4.10;1.90;;;20.50;99.90;;;;;;4996119;28;20203;-76
2022/01/12 12:10:26;;;;;;;4.13;2.27;;;20.60;99.90;;;;;;4995436;28;20546;-75
2022/01/12 12:12:56;;;;;;;4.53;1.90;;;20.60;99.90;;;;;;4995667;28;20546;-73
2022/01/12 12:15:25;;;;;;;5.30;1.90;;;20.60;99.90;;;;;;4995815;28;20673;-77
2022/01/12 12:18:03;;;;;;;5.33;1.80;;;20.60;99.90;;;;;;4996152;28;20241;-75
2022/01/12 12:20:32;;;;;;;7.30;1.70;;;20.50;99.90;;;;;;4994640;28;20174;-76
2022/01/12 12:23:00;;;;;;;3.13;1.53;;;20.60;99.90;;;;;;4995175;28;20200;-76
2022/01/12 12:25:29;;;;;;;9.00;2.33;;;20.60;99.90;;;;;;4994657;28;20666;-75
2022/01/12 12:28:01;;;;;;;8.27;2.13;;;20.60;99.90;;;;;;4995623;28;20177;-79
2022/01/12 12:30:30;;;;;;;3.67;1.60;;;20.60;99.90;;;;;;4995395;28;20184;-74
2022/01/12 12:33:12;;;;;;;4.50;1.43;;;20.60;99.90;;;;;;4995602;28;20664;-76
2022/01/12 12:35:41;;;;;;;5.10;1.43;;;20.60;99.90;;;;;;4995670;28;20188;-78
2022/01/12 12:38:11;;;;;;;6.83;1.60;;;20.60;99.90;;;;;;4995416;28;20237;-77
2022/01/12 12:40:40;;;;;;;11.13;1.63;;;20.60;99.90;;;;;;4995219;28;20183;-75
2022/01/12 12:43:26;;;;;;;7.70;2.03;;;20.60;99.90;;;;;;4995694;28;20182;-77
2022/01/12 12:46:11;;;;;;;6.27;2.23;;;20.60;99.90;;;;;;4995227;28;20615;-72
2022/01/12 12:48:43;;;;;;;7.03;2.17;;;20.60;99.90;;;;;;4994935;28;20639;-75
2022/01/12 12:51:14;;;;;;;4.63;2.13;;;20.60;99.90;;;;;;4994951;28;20800;-76
2022/01/12 12:53:47;;;;;;;9.30;2.00;;;20.50;99.90;;;;;;4995404;28;20186;-73
2022/01/12 12:56:20;;;;;;;6.83;1.53;;;20.50;99.90;;;;;;4994758;28;20265;-72
2022/01/12 12:58:52;;;;;;;5.97;2.23;;;20.50;99.90;;;;;;4995300;28;20187;-76
2022/01/12 13:01:22;;;;;;;4.83;1.63;;;20.50;99.90;;;;;;4994533;28;20226;-75
2022/01/12 13:03:59;;;;;;;9.13;1.80;;;20.50;99.90;;;;;;4994984;28;20251;-75
2022/01/12 13:06:32;;;;;;;11.60;2.00;;;20.50;99.90;;;;;;4995133;28;20266;-75
2022/01/12 13:09:08;;;;;;;10.03;2.50;;;20.50;99.90;;;;;;4994934;28;20192;-75
2022/01/12 13:11:37;;;;;;;3.63;1.60;;;20.50;99.90;;;;;;4994548;28;20187;-76
2022/01/12 13:14:08;;;;;;;5.83;1.97;;;20.60;99.90;;;;;;4977102;28;20684;-76
2022/01/12 13:16:44;;;;;;;6.50;2.23;;;20.60;99.90;;;;;;4994431;28;20209;-74
2022/01/12 13:19:33;;;;;;;9.50;2.13;;;20.60;99.90;;;;;;4995101;28;20539;-75
2022/01/12 13:22:00;;;;;;;7.23;1.80;;;20.60;99.90;;;;;;4957553;28;20200;-73
2022/01/12 13:24:28;;;;;;;5.63;2.00;;;20.50;99.90;;;;;;4975333;28;20211;-76
2022/01/12 13:26:56;;;;;;;7.20;1.90;;;20.60;99.90;;;;;;4975127;28;20704;-72
2022/01/12 13:29:23;;;;;;;8.50;1.80;;;20.70;99.90;;;;;;4976686;28;20183;-74
2022/01/12 13:31:51;;;;;;;5.73;1.73;;;20.70;99.90;;;;;;4977027;28;20195;-75
2022/01/12 13:34:20;;;;;;;10.13;2.13;;;20.70;99.90;;;;;;4994383;28;20636;-72
2022/01/12 13:36:51;;;;;;;6.00;1.57;;;20.70;99.90;;;;;;4994299;28;20202;-73
2022/01/12 13:39:20;;;;;;;9.90;2.20;;;20.70;99.90;;;;;;4993634;28;20655;-76
2022/01/12 13:41:51;;;;;;;6.80;2.10;;;20.70;99.90;;;;;;4994259;28;20184;-78
2022/01/12 13:44:21;;;;;;;10.97;2.07;;;20.70;99.90;;;;;;4994310;28;20190;-77
2022/01/12 13:47:01;;;;;;;5.73;1.50;;;20.60;99.90;;;;;;4976882;28;20193;-77
2022/01/12 13:49:28;;;;;;;11.17;2.10;;;20.50;99.90;;;;;;4994125;28;20208;-74
2022/01/12 13:52:09;;;;;;;4.33;1.63;;;20.50;99.90;;;;;;4994925;28;20270;-75
2022/01/12 13:54:43;;;;;;;5.63;1.40;;;20.50;99.90;;;;;;4994054;28;20183;-77
2022/01/12 13:57:17;;;;;;;4.03;1.23;;;20.40;99.90;;;;;;4976673;28;20311;-73
2022/01/12 13:59:47;;;;;;;4.90;1.30;;;20.40;99.90;;;;;;4993804;28;20624;-75
2022/01/12 14:02:18;;;;;;;4.43;1.57;;;20.40;99.90;;;;;;4993829;28;20305;-75
2022/01/12 14:04:54;;;;;;;4.87;1.70;;;20.30;99.90;;;;;;4976159;28;20338;-73
2022/01/12 14:07:26;;;;;;;2.37;0.90;;;20.40;99.90;;;;;;4994312;28;20178;-76
2022/01/12 14:09:58;;;;;;;1.40;0.70;;;20.40;99.90;;;;;;4993985;28;20563;-71
2022/01/12 14:12:27;;;;;;;3.07;1.00;;;20.40;99.90;;;;;;4994287;28;20255;-74
2022/01/12 14:14:59;;;;;;;3.23;1.00;;;20.40;99.90;;;;;;4994195;28;20707;-73
2022/01/12 14:17:36;;;;;;;2.00;0.73;;;20.30;99.90;;;;;;4993764;28;20206;-72
2022/01/12 14:20:24;;;;;;;2.37;1.00;;;20.40;99.90;;;;;;4976165;28;20211;-72
2022/01/12 14:23:01;;;;;;;3.10;1.00;;;20.40;99.90;;;;;;4993888;28;20573;-77
2022/01/12 14:25:46;;;;;;;4.23;1.47;;;20.40;99.90;;;;;;4993745;28;20225;-73
2022/01/12 14:28:33;;;;;;;2.50;0.93;;;20.40;99.90;;;;;;4994044;28;20643;-74